createdAt,value
2023-06-02T00:00:25.354Z,81.82
2023-06-02T00:01:25.339Z,81.92
2023-06-02T00:02:25.424Z,82.02
2023-06-02T00:03:25.355Z,82.12
2023-06-02T00:04:25.484Z,81.92
2023-06-02T00:05:25.307Z,82.12
2023-06-02T00:06:25.285Z,82.12
2023-06-02T00:07:25.274Z,82.33
2023-06-02T00:08:25.273Z,82.63
2023-06-02T00:09:25.246Z,82.63
2023-06-02T00:10:25.239Z,83.08
2023-06-02T00:11:25.227Z,83.48
2023-06-02T00:12:25.233Z,83.68
2023-06-02T00:13:25.205Z,83.89
2023-06-02T00:14:25.394Z,84.64
2023-06-02T00:15:25.192Z,84.84
2023-06-02T00:16:25.203Z,85.35
2023-06-02T00:17:25.271Z,84.98
2023-06-02T00:18:25.161Z,85.59
2023-06-02T00:19:25.150Z,85.79
2023-06-02T00:20:25.128Z,86.34
2023-06-02T00:21:25.266Z,86.65
2023-06-02T00:22:25.125Z,86.59
2023-06-02T00:23:25.102Z,87.71
2023-06-02T00:24:25.085Z,87.40
2023-06-02T00:25:25.087Z,87.95
2023-06-02T00:26:25.080Z,88.87
2023-06-02T00:27:25.058Z,89.01
2023-06-02T00:28:25.050Z,89.72
2023-06-02T00:29:25.034Z,90.24
2023-06-02T00:30:25.020Z,90.24
2023-06-02T00:31:25.052Z,90.99
2023-06-02T00:32:25.036Z,91.50
2023-06-02T00:33:25.003Z,91.91
2023-06-02T00:34:24.981Z,92.21
2023-06-02T00:35:24.978Z,92.27
2023-06-02T00:36:24.967Z,91.76
2023-06-02T00:37:24.958Z,91.66
2023-06-02T00:38:24.952Z,91.21
2023-06-02T00:39:24.940Z,90.90
2023-06-02T00:40:24.939Z,90.70
2023-06-02T00:41:24.916Z,90.55
2023-06-02T00:42:24.897Z,90.35
2023-06-02T00:43:24.897Z,90.35
2023-06-02T00:44:24.875Z,89.94
2023-06-02T00:45:24.881Z,90.25
2023-06-02T00:46:24.873Z,90.15
2023-06-02T00:47:24.889Z,90.19
2023-06-02T00:48:24.826Z,90.46
2023-06-02T00:49:24.842Z,90.80
2023-06-02T00:50:24.815Z,90.96
2023-06-02T00:51:24.821Z,91.27
2023-06-02T00:52:24.793Z,91.37
2023-06-02T00:53:24.787Z,90.96
2023-06-02T00:54:24.781Z,91.41
2023-06-02T00:55:24.767Z,91.57
2023-06-02T00:56:24.754Z,91.68
2023-06-02T00:57:24.749Z,91.68
2023-06-02T00:58:24.735Z,91.57
2023-06-02T00:59:24.734Z,91.27
2023-06-02T01:00:24.708Z,91.27
2023-06-02T01:01:24.804Z,90.92
2023-06-02T01:02:24.709Z,90.82
2023-06-02T01:03:24.702Z,91.17
2023-06-02T01:04:24.672Z,91.27
2023-06-02T01:05:24.670Z,91.47
2023-06-02T01:06:24.753Z,91.68
2023-06-02T01:07:24.645Z,91.88
2023-06-02T01:08:24.633Z,91.98
2023-06-02T01:09:24.634Z,92.29
2023-06-02T01:10:24.615Z,92.59
2023-06-02T01:11:24.602Z,92.63
2023-06-02T01:12:24.639Z,92.74
2023-06-02T01:13:24.582Z,92.94
2023-06-02T01:14:24.564Z,93.14
2023-06-02T01:15:24.576Z,93.24
2023-06-02T01:16:24.570Z,93.45
2023-06-02T01:17:24.582Z,93.35
2023-06-02T01:18:24.620Z,93.55
2023-06-02T01:19:24.515Z,93.85
2023-06-02T01:20:24.504Z,93.90
2023-06-02T01:21:24.735Z,94.11
2023-06-02T01:22:24.484Z,94.11
2023-06-02T01:23:24.543Z,94.31
2023-06-02T01:24:24.571Z,94.20
2023-06-02T01:25:24.487Z,94.51
2023-06-02T01:26:24.442Z,94.72
2023-06-02T01:27:24.466Z,95.12
2023-06-02T01:28:24.421Z,95.12
2023-06-02T01:29:24.437Z,95.63
2023-06-02T01:30:24.483Z,95.83
2023-06-02T01:31:24.413Z,95.83
2023-06-02T01:32:24.402Z,95.73
2023-06-02T01:33:24.394Z,96.08
2023-06-02T01:34:24.406Z,96.04
2023-06-02T01:35:24.351Z,96.04
2023-06-02T01:36:24.339Z,96.35
2023-06-02T01:37:24.409Z,96.14
2023-06-02T01:38:24.413Z,95.83
2023-06-02T01:39:24.409Z,96.14
2023-06-02T01:40:24.356Z,96.24
2023-06-02T01:41:24.379Z,96.24
2023-06-02T01:42:24.292Z,96.14
2023-06-02T01:43:24.276Z,96.04
2023-06-02T01:44:24.352Z,96.14
2023-06-02T01:45:24.256Z,96.14
2023-06-02T01:46:24.289Z,96.19
2023-06-02T01:47:24.242Z,96.49
2023-06-02T01:48:24.218Z,96.80
2023-06-02T01:49:24.215Z,97.21
2023-06-02T01:50:24.193Z,97.61
2023-06-02T01:51:24.201Z,97.92
2023-06-02T01:52:24.175Z,97.71
2023-06-02T01:53:24.168Z,97.82
2023-06-02T01:54:24.150Z,97.71
2023-06-02T01:55:24.148Z,97.82
2023-06-02T01:56:24.190Z,97.61
2023-06-02T01:57:24.125Z,97.41
2023-06-02T01:58:24.110Z,97.31
2023-06-02T01:59:24.136Z,97.31
2023-06-02T02:00:24.096Z,97.10
2023-06-02T02:01:24.108Z,97.71
2023-06-02T02:02:24.207Z,97.71
2023-06-02T02:03:24.202Z,97.61
2023-06-02T02:04:24.045Z,97.92
2023-06-02T02:05:24.060Z,97.71
2023-06-02T02:06:24.025Z,97.82
2023-06-02T02:07:24.026Z,97.86
2023-06-02T02:08:24.005Z,97.96
2023-06-02T02:09:24.000Z,98.37
2023-06-02T02:10:23.986Z,98.48
2023-06-02T02:11:23.995Z,98.27
2023-06-02T02:12:23.962Z,98.57
2023-06-02T02:13:23.958Z,98.57
2023-06-02T02:14:23.943Z,98.68
2023-06-02T02:15:23.952Z,98.57
2023-06-02T02:16:23.938Z,98.48
2023-06-02T02:17:23.970Z,98.68
2023-06-02T02:18:23.903Z,98.68
2023-06-02T02:19:23.925Z,99.03
2023-06-02T02:20:23.875Z,99.03
2023-06-02T02:21:23.882Z,98.82
2023-06-02T02:22:23.871Z,99.13
2023-06-02T02:23:23.868Z,99.23
2023-06-02T02:24:23.846Z,99.09
2023-06-02T02:25:23.831Z,98.98
2023-06-02T02:26:23.815Z,98.78
2023-06-02T02:27:23.824Z,98.62
2023-06-02T02:28:23.793Z,98.93
2023-06-02T02:29:23.806Z,99.03
2023-06-02T02:30:23.816Z,99.03
2023-06-02T02:31:23.952Z,99.34
2023-06-02T02:32:23.793Z,99.44
2023-06-02T02:33:23.740Z,99.74
2023-06-02T02:34:23.742Z,99.64
2023-06-02T02:35:23.727Z,99.85
2023-06-02T02:36:23.715Z,99.74
2023-06-02T02:37:37.042Z,99.54
2023-06-02T02:38:23.693Z,99.54
2023-06-02T02:39:23.688Z,99.34
2023-06-02T02:40:23.675Z,99.03
2023-06-02T02:41:23.656Z,99.13
2023-06-02T02:42:23.664Z,99.13
2023-06-02T02:43:23.641Z,99.18
2023-06-02T02:44:23.627Z,99.38
2023-06-02T02:45:23.622Z,99.69
2023-06-02T02:46:23.673Z,99.89
2023-06-02T02:47:23.647Z,99.89
2023-06-02T02:48:23.591Z,99.79
2023-06-02T02:49:23.583Z,99.69
2023-06-02T02:50:23.567Z,99.69
2023-06-02T02:51:23.550Z,99.89
2023-06-02T02:52:23.557Z,99.99
2023-06-02T02:53:23.531Z,99.99
2023-06-02T02:54:23.524Z,99.99
2023-06-02T02:55:23.454Z,99.99
2023-06-02T02:56:23.680Z,99.99
2023-06-02T02:57:23.450Z,99.99
2023-06-02T02:58:23.446Z,99.99
2023-06-02T02:59:23.411Z,99.99
2023-06-02T03:00:23.422Z,99.99
2023-06-02T03:01:23.437Z,99.99
2023-06-02T03:02:23.443Z,99.99
2023-06-02T03:03:23.369Z,99.99
2023-06-02T03:04:23.474Z,99.99
2023-06-02T03:05:23.350Z,99.99
2023-06-02T03:06:23.357Z,99.99
2023-06-02T03:07:23.328Z,99.99
2023-06-02T03:08:23.333Z,99.99
2023-06-02T03:09:23.306Z,99.99
2023-06-02T03:10:23.310Z,99.99
2023-06-02T03:11:23.297Z,99.99
2023-06-02T03:12:23.295Z,99.99
2023-06-02T03:13:23.270Z,99.99
2023-06-02T03:14:23.268Z,99.99
2023-06-02T03:15:23.249Z,99.99
2023-06-02T03:16:23.286Z,99.99
2023-06-02T03:17:23.251Z,99.99
2023-06-02T03:18:23.222Z,99.99
2023-06-02T03:19:23.214Z,99.99
2023-06-02T03:20:23.196Z,99.99
2023-06-02T03:21:23.301Z,99.99
2023-06-02T03:22:23.191Z,99.99
2023-06-02T03:23:23.176Z,99.99
2023-06-02T03:24:23.172Z,99.99
2023-06-02T03:25:23.149Z,99.99
2023-06-02T03:26:23.148Z,99.99
2023-06-02T03:27:23.131Z,99.99
2023-06-02T03:28:23.135Z,99.99
2023-06-02T03:29:23.124Z,99.99
2023-06-02T03:30:23.113Z,99.99
2023-06-02T03:31:23.110Z,99.99
2023-06-02T03:32:23.103Z,99.99
2023-06-02T03:33:23.073Z,99.99
2023-06-02T03:34:23.058Z,99.99
2023-06-02T03:35:23.043Z,99.99
2023-06-02T03:36:23.070Z,99.99
2023-06-02T03:37:23.015Z,99.99
2023-06-02T03:38:23.014Z,99.99
2023-06-02T03:39:22.993Z,99.99
2023-06-02T03:40:22.995Z,99.99
2023-06-02T03:41:22.984Z,99.99
2023-06-02T03:42:22.980Z,99.99
2023-06-02T03:43:22.964Z,99.99
2023-06-02T03:44:22.961Z,99.99
2023-06-02T03:45:22.939Z,99.99
2023-06-02T03:46:22.954Z,99.99
2023-06-02T03:47:22.955Z,99.99
2023-06-02T03:48:22.915Z,99.99
2023-06-02T03:49:22.890Z,99.99
2023-06-02T03:50:22.885Z,99.99
2023-06-02T03:51:22.879Z,99.99
2023-06-02T03:52:22.890Z,99.99
2023-06-02T03:53:22.851Z,99.99
2023-06-02T03:54:22.865Z,99.99
2023-06-02T03:55:22.840Z,99.99
2023-06-02T03:56:22.837Z,99.99
2023-06-02T03:57:22.817Z,99.99
2023-06-02T03:58:22.817Z,99.99
2023-06-02T03:59:22.797Z,99.99
2023-06-02T04:00:22.790Z,99.99
2023-06-02T04:01:22.765Z,99.99
2023-06-02T04:02:22.809Z,99.99
2023-06-02T04:03:23.411Z,99.99
2023-06-02T04:04:22.901Z,99.99
2023-06-02T04:05:22.725Z,99.99
2023-06-02T04:06:22.763Z,99.99
2023-06-02T04:07:22.721Z,99.99
2023-06-02T04:08:22.710Z,99.99
2023-06-02T04:09:22.699Z,99.69
2023-06-02T04:10:22.703Z,99.28
2023-06-02T04:11:22.683Z,99.07
2023-06-02T04:12:22.683Z,98.62
2023-06-02T04:13:22.645Z,98.21
2023-06-02T04:14:22.665Z,97.80
2023-06-02T04:15:22.632Z,97.60
2023-06-02T04:16:22.662Z,97.05
2023-06-02T04:17:22.648Z,96.64
2023-06-02T04:18:22.609Z,96.33
2023-06-02T04:19:22.598Z,95.82
2023-06-02T04:20:22.592Z,95.52
2023-06-02T04:21:22.599Z,95.11
2023-06-02T04:22:22.572Z,95.11
2023-06-02T04:23:22.590Z,94.56
2023-06-02T04:24:22.547Z,94.35
2023-06-02T04:25:22.541Z,94.04
2023-06-02T04:26:22.524Z,94.04
2023-06-02T04:27:22.529Z,93.95
2023-06-02T04:28:22.508Z,93.59
2023-06-02T04:29:22.496Z,93.29
2023-06-02T04:30:22.496Z,92.98
2023-06-02T04:31:22.486Z,92.98
2023-06-02T04:32:22.469Z,92.57
2023-06-02T04:33:22.474Z,92.33
2023-06-02T04:34:22.478Z,91.92
2023-06-02T04:35:22.427Z,91.52
2023-06-02T04:36:22.437Z,91.82
2023-06-02T04:37:22.410Z,91.52
2023-06-02T04:38:22.421Z,91.11
2023-06-02T04:39:22.400Z,90.96
2023-06-02T04:40:22.385Z,90.76
2023-06-02T04:41:22.371Z,90.46
2023-06-02T04:42:22.368Z,90.15
2023-06-02T04:43:22.361Z,89.74
2023-06-02T04:44:22.340Z,89.23
2023-06-02T04:45:22.332Z,89.64
2023-06-02T04:46:22.365Z,89.33
2023-06-02T04:47:22.329Z,89.60
2023-06-02T04:48:22.307Z,89.30
2023-06-02T04:49:22.275Z,89.19
2023-06-02T04:50:22.291Z,89.19
2023-06-02T04:51:22.266Z,89.30
2023-06-02T04:52:22.256Z,88.89
2023-06-02T04:53:22.236Z,88.99
2023-06-02T04:54:22.233Z,89.15
2023-06-02T04:55:22.212Z,88.64
2023-06-02T04:56:22.219Z,88.74
2023-06-02T04:57:22.189Z,88.84
2023-06-02T04:58:22.197Z,88.54
2023-06-02T04:59:22.193Z,88.84
2023-06-02T05:00:22.170Z,88.43
2023-06-02T05:01:22.164Z,88.54
2023-06-02T05:02:22.198Z,88.60
2023-06-02T05:03:22.132Z,88.19
2023-06-02T05:04:22.313Z,87.89
2023-06-02T05:05:22.104Z,87.48
2023-06-02T05:06:22.102Z,87.38
2023-06-02T05:07:22.159Z,87.28
2023-06-02T05:08:22.081Z,87.28
2023-06-02T05:09:22.088Z,87.24
2023-06-02T05:10:22.065Z,87.34
2023-06-02T05:11:22.037Z,87.54
2023-06-02T05:12:22.044Z,86.83
2023-06-02T05:13:22.036Z,86.52
2023-06-02T05:14:22.028Z,86.79
2023-06-02T05:15:22.012Z,85.77
2023-06-02T05:16:22.020Z,85.88
2023-06-02T05:17:22.016Z,85.16
2023-06-02T05:18:21.987Z,85.47
2023-06-02T05:19:21.969Z,85.53
2023-06-02T05:20:21.951Z,85.23
2023-06-02T05:21:21.987Z,85.13
2023-06-02T05:22:21.931Z,84.27
2023-06-02T05:23:21.913Z,83.97
2023-06-02T05:24:21.941Z,84.27
2023-06-02T05:25:21.898Z,83.32
2023-06-02T05:26:21.911Z,82.21
2023-06-02T05:27:21.876Z,80.95
2023-06-02T05:28:21.876Z,80.51
2023-06-02T05:29:21.853Z,80.27
2023-06-02T05:30:21.858Z,77.67
2023-06-02T05:31:21.837Z,76.69
2023-06-02T05:32:21.852Z,75.33
2023-06-02T05:33:21.807Z,74.69
2023-06-02T05:34:21.800Z,73.35
2023-06-02T05:35:21.822Z,73.48
2023-06-02T05:36:21.782Z,72.77
2023-06-02T05:37:21.785Z,71.23
2023-06-02T05:38:21.774Z,71.39
2023-06-02T05:39:21.766Z,71.30
2023-06-02T05:40:21.770Z,70.36
2023-06-02T05:41:21.729Z,69.92
2023-06-02T05:42:21.726Z,68.75
2023-06-02T05:43:21.700Z,68.31
2023-06-02T05:44:21.721Z,68.58
2023-06-02T05:45:21.702Z,69.42
2023-06-02T05:46:21.694Z,66.80
2023-06-02T05:47:21.744Z,66.90
2023-06-02T05:48:21.710Z,67.77
2023-06-02T05:49:21.646Z,66.51
2023-06-02T05:50:21.645Z,66.51
2023-06-02T05:51:21.639Z,65.33
2023-06-02T05:52:21.627Z,66.83
2023-06-02T05:53:21.619Z,66.57
2023-06-02T05:54:21.604Z,66.50
2023-06-02T05:55:21.595Z,68.07
2023-06-02T05:56:21.585Z,67.17
2023-06-02T05:57:21.568Z,67.20
2023-06-02T05:58:21.575Z,67.54
2023-06-02T05:59:21.536Z,66.77
2023-06-02T06:00:21.556Z,66.63
2023-06-02T06:01:21.520Z,65.93
2023-06-02T06:02:21.547Z,65.63
2023-06-02T06:03:21.618Z,65.93
2023-06-02T06:04:21.524Z,66.00
2023-06-02T06:05:21.493Z,63.92
2023-06-02T06:06:21.495Z,65.40
2023-06-02T06:07:21.469Z,64.19
2023-06-02T06:08:21.476Z,64.30
2023-06-02T06:09:21.715Z,63.89
2023-06-02T06:10:21.445Z,64.59
2023-06-02T06:11:21.425Z,64.19
2023-06-02T06:12:21.419Z,64.36
2023-06-02T06:13:21.404Z,64.73
2023-06-02T06:14:21.405Z,62.82
2023-06-02T06:15:21.390Z,63.16
2023-06-02T06:16:21.423Z,64.89
2023-06-02T06:17:21.368Z,64.80
2023-06-02T06:18:21.350Z,64.56
2023-06-02T06:19:21.367Z,63.06
2023-06-02T06:20:21.349Z,65.30
2023-06-02T06:21:21.351Z,64.97
2023-06-02T06:22:21.306Z,65.00
2023-06-02T06:23:21.308Z,62.50
2023-06-02T06:24:21.297Z,62.06
2023-06-02T06:25:21.269Z,62.34
2023-06-02T06:26:21.278Z,62.21
2023-06-02T06:27:21.252Z,61.01
2023-06-02T06:28:21.257Z,61.71
2023-06-02T06:29:21.218Z,60.98
2023-06-02T06:30:21.223Z,59.97
2023-06-02T06:31:21.204Z,60.20
2023-06-02T06:32:21.211Z,60.93
2023-06-02T06:33:21.190Z,63.27
2023-06-02T06:34:21.205Z,63.41
2023-06-02T06:35:21.191Z,60.20
2023-06-02T06:36:21.152Z,62.04
2023-06-02T06:37:21.140Z,61.30
2023-06-02T06:38:21.173Z,60.60
2023-06-02T06:39:21.148Z,60.80
2023-06-02T06:40:21.119Z,61.18
2023-06-02T06:41:21.104Z,60.30
2023-06-02T06:42:21.095Z,61.07
2023-06-02T06:43:24.238Z,61.92
2023-06-02T06:44:21.076Z,60.58
2023-06-02T06:45:21.065Z,59.22
2023-06-02T06:46:21.052Z,58.42
2023-06-02T06:47:21.093Z,58.85
2023-06-02T06:48:21.114Z,58.02
2023-06-02T06:49:21.022Z,59.16
2023-06-02T06:50:21.002Z,57.16
2023-06-02T06:51:21.002Z,58.56
2023-06-02T06:52:20.979Z,57.14
2023-06-02T06:53:20.995Z,57.03
2023-06-02T06:54:20.974Z,58.13
2023-06-02T06:55:20.964Z,57.03
2023-06-02T06:56:20.944Z,57.33
2023-06-02T06:57:20.948Z,58.03
2023-06-02T06:58:20.921Z,56.23
2023-06-02T06:59:20.913Z,58.20
2023-06-02T07:00:20.900Z,56.93
2023-06-02T07:01:20.925Z,57.73
2023-06-02T07:02:20.868Z,56.66
2023-06-02T07:03:20.983Z,57.36
2023-06-02T07:04:20.854Z,58.72
2023-06-02T07:05:20.886Z,59.11
2023-06-02T07:06:20.857Z,57.39
2023-06-02T07:07:20.841Z,57.76
2023-06-02T07:08:20.833Z,57.03
2023-06-02T07:09:20.827Z,57.51
2023-06-02T07:10:20.829Z,55.51
2023-06-02T07:11:20.780Z,56.21
2023-06-02T07:12:20.770Z,56.85
2023-06-02T07:13:20.788Z,54.23
2023-06-02T07:14:20.771Z,54.63
2023-06-02T07:15:20.749Z,57.59
2023-06-02T07:16:20.780Z,56.71
2023-06-02T07:17:20.745Z,54.33
2023-06-02T07:18:22.177Z,51.84
2023-06-02T07:19:20.700Z,54.48
2023-06-02T07:20:20.686Z,54.01
2023-06-02T07:21:20.709Z,53.54
2023-06-02T07:22:20.674Z,54.26
2023-06-02T07:23:20.658Z,56.28
2023-06-02T07:24:20.642Z,54.58
2023-06-02T07:25:20.641Z,54.11
2023-06-02T07:26:20.626Z,55.78
2023-06-02T07:27:20.612Z,53.86
2023-06-02T07:29:21.635Z,56.06
2023-06-02T07:30:20.629Z,55.99
2023-06-02T07:31:20.600Z,56.29
2023-06-02T07:32:20.557Z,57.06
2023-06-02T07:33:20.553Z,54.89
2023-06-02T07:34:20.550Z,55.99
2023-06-02T07:35:20.540Z,56.86
2023-06-02T07:36:20.513Z,57.56
2023-06-02T07:37:20.528Z,56.36
2023-06-02T07:38:20.498Z,57.16
2023-06-02T07:39:20.514Z,55.76
2023-06-02T07:40:20.490Z,56.90
2023-06-02T07:41:20.791Z,55.58
2023-06-02T07:42:20.535Z,54.06
2023-06-02T07:43:20.469Z,56.13
2023-06-02T07:44:20.422Z,53.98
2023-06-02T07:45:20.473Z,53.96
2023-06-02T07:46:20.454Z,54.63
2023-06-02T07:47:20.425Z,51.29
2023-06-02T07:48:20.411Z,52.51
2023-06-02T07:49:20.426Z,52.71
2023-06-02T07:50:20.390Z,52.74
2023-06-02T07:51:20.366Z,53.76
2023-06-02T07:52:20.486Z,54.29
2023-06-02T07:53:20.342Z,52.89
2023-06-02T07:54:20.318Z,54.79
2023-06-02T07:55:20.342Z,53.21
2023-06-02T07:56:20.297Z,53.91
2023-06-02T07:57:20.301Z,54.61
2023-06-02T07:58:20.295Z,54.21
2023-06-02T07:59:20.283Z,53.31
2023-06-02T08:00:20.253Z,56.51
2023-06-02T08:01:20.257Z,53.57
2023-06-02T08:02:20.315Z,55.93
2023-06-02T08:03:20.323Z,53.49
2023-06-02T08:04:20.404Z,53.09
2023-06-02T08:05:20.261Z,54.63
2023-06-02T08:06:20.204Z,54.46
2023-06-02T08:07:20.208Z,55.01
2023-06-02T08:08:20.169Z,53.51
2023-06-02T08:09:20.166Z,52.59
2023-06-02T08:10:20.166Z,52.44
2023-06-02T08:11:20.170Z,53.58
2023-06-02T08:12:20.143Z,52.39
2023-06-02T08:13:20.128Z,51.51
2023-06-02T08:14:20.110Z,49.82
2023-06-02T08:15:20.103Z,49.50
2023-06-02T08:16:28.735Z,49.21
2023-06-02T08:17:21.124Z,49.63
2023-06-02T08:18:20.219Z,48.91
2023-06-02T08:19:20.099Z,51.09
2023-06-02T08:20:20.053Z,52.11
2023-06-02T08:21:20.076Z,50.59
2023-06-02T08:22:20.152Z,50.10
2023-06-02T08:23:20.027Z,51.04
2023-06-02T08:24:20.031Z,53.01
2023-06-02T08:25:20.012Z,52.36
2023-06-02T08:26:19.989Z,50.17
2023-06-02T08:27:19.981Z,51.14
2023-06-02T08:28:20.014Z,49.63
2023-06-02T08:29:19.959Z,51.72
2023-06-02T08:30:19.945Z,51.84
2023-06-02T08:31:19.997Z,49.41
2023-06-02T08:32:20.011Z,47.53
2023-06-02T08:33:19.974Z,47.83
2023-06-02T08:34:19.909Z,48.75
2023-06-02T08:35:20.004Z,48.65
2023-06-02T08:36:19.993Z,47.12
2023-06-02T08:37:19.899Z,44.95
2023-06-02T08:38:19.892Z,48.15
2023-06-02T08:39:19.870Z,46.25
2023-06-02T08:40:19.940Z,47.52
2023-06-02T08:41:19.854Z,45.79
2023-06-02T08:42:19.849Z,43.05
2023-06-02T08:43:19.834Z,43.19
2023-06-02T08:44:19.883Z,44.64
2023-06-02T08:45:19.869Z,47.06
2023-06-02T08:46:19.825Z,45.77
2023-06-02T08:47:19.819Z,45.57
2023-06-02T08:48:19.778Z,45.98
2023-06-02T08:49:19.756Z,48.64
2023-06-02T08:50:19.769Z,48.62
2023-06-02T08:51:19.739Z,47.82
2023-06-02T08:52:19.726Z,46.43
2023-06-02T08:53:19.758Z,47.05
2023-06-02T08:54:19.705Z,47.55
2023-06-02T08:55:19.689Z,47.89
2023-06-02T08:56:19.820Z,47.27
2023-06-02T08:57:19.673Z,48.14
2023-06-02T08:58:19.674Z,50.20
2023-06-02T08:59:19.660Z,46.95
2023-06-02T09:00:19.638Z,48.19
2023-06-02T09:01:19.703Z,46.96
2023-06-02T09:02:19.815Z,46.84
2023-06-02T09:03:39.710Z,47.63
2023-06-02T09:04:20.702Z,45.11
2023-06-02T09:05:19.605Z,45.78
2023-06-02T09:06:19.571Z,44.89
2023-06-02T09:07:19.577Z,45.05
2023-06-02T09:08:19.549Z,44.40
2023-06-02T09:09:19.562Z,45.01
2023-06-02T09:10:19.558Z,43.51
2023-06-02T09:11:19.533Z,46.30
2023-06-02T09:12:19.514Z,47.24
2023-06-02T09:13:19.513Z,43.88
2023-06-02T09:14:19.489Z,45.05
2023-06-02T09:15:19.501Z,43.51
2023-06-02T09:16:19.504Z,44.40
2023-06-02T09:17:19.502Z,45.09
2023-06-02T09:18:19.882Z,43.84
2023-06-02T09:19:19.442Z,43.10
2023-06-02T09:20:19.428Z,41.90
2023-06-02T09:21:19.457Z,42.73
2023-06-02T09:22:19.401Z,41.72
2023-06-02T09:23:19.404Z,44.27
2023-06-02T09:24:19.384Z,43.71
2023-06-02T09:25:19.403Z,42.46
2023-06-02T09:26:21.051Z,45.84
2023-06-02T09:27:19.382Z,42.85
2023-06-02T09:28:19.381Z,44.78
2023-06-02T09:29:19.358Z,43.46
2023-06-02T09:30:19.330Z,40.50
2023-06-02T09:31:19.404Z,41.37
2023-06-02T09:32:19.371Z,42.71
2023-06-02T09:33:19.456Z,41.01
2023-06-02T09:34:19.295Z,40.64
2023-06-02T09:35:19.285Z,40.54
2023-06-02T09:36:19.276Z,41.09
2023-06-02T09:37:19.262Z,42.10
2023-06-02T09:38:19.245Z,42.79
2023-06-02T09:39:19.241Z,41.68
2023-06-02T09:40:19.221Z,40.27
2023-06-02T09:41:20.238Z,46.90
2023-06-02T09:42:19.208Z,42.59
2023-06-02T09:43:19.205Z,42.77
2023-06-02T09:44:19.182Z,42.87
2023-06-02T09:45:19.237Z,40.78
2023-06-02T09:46:19.308Z,39.89
2023-06-02T09:47:19.195Z,42.55
2023-06-02T09:48:19.320Z,39.42
2023-06-02T09:49:19.162Z,40.88
2023-06-02T09:50:19.137Z,40.14
2023-06-02T09:51:19.119Z,41.43
2023-06-02T09:52:19.109Z,41.11
2023-06-02T09:53:19.197Z,40.91
2023-06-02T09:54:19.119Z,39.65
2023-06-02T09:55:19.117Z,42.30
2023-06-02T09:56:19.085Z,40.22
2023-06-02T09:57:19.064Z,42.96
2023-06-02T09:58:19.056Z,43.00
2023-06-02T09:59:19.046Z,38.75
2023-06-02T10:00:19.045Z,39.08
2023-06-02T10:01:19.055Z,44.16
2023-06-02T10:02:19.055Z,39.12
2023-06-02T10:03:19.094Z,38.95
2023-06-02T10:04:18.999Z,39.93
2023-06-02T10:05:19.009Z,43.76
2023-06-02T10:06:18.966Z,42.60
2023-06-02T10:07:18.976Z,43.86
2023-06-02T10:08:18.941Z,45.05
2023-06-02T10:09:18.963Z,44.90
2023-06-02T10:10:18.978Z,41.51
2023-06-02T10:11:18.930Z,40.36
2023-06-02T10:12:18.909Z,41.04
2023-06-02T10:13:18.904Z,39.56
2023-06-02T10:14:18.900Z,39.75
2023-06-02T10:15:18.884Z,41.58
2023-06-02T10:16:18.951Z,40.13
2023-06-02T10:17:18.866Z,39.03
2023-06-02T10:18:18.848Z,38.24
2023-06-02T10:19:18.862Z,40.22
2023-06-02T10:20:18.956Z,39.80
2023-06-02T10:21:18.837Z,38.30
2023-06-02T10:22:18.812Z,37.91
2023-06-02T10:23:18.953Z,39.59
2023-06-02T10:24:18.918Z,39.61
2023-06-02T10:25:18.792Z,41.07
2023-06-02T10:26:18.798Z,39.08
2023-06-02T10:27:18.767Z,38.77
2023-06-02T10:28:18.758Z,41.88
2023-06-02T10:29:18.757Z,39.38
2023-06-02T10:30:18.740Z,36.89
2023-06-02T10:31:18.800Z,41.48
2023-06-02T10:32:18.714Z,37.07
2023-06-02T10:33:18.758Z,37.10
2023-06-02T10:34:18.695Z,36.10
2023-06-02T10:35:18.684Z,39.15
2023-06-02T10:36:18.672Z,38.09
2023-06-02T10:37:18.670Z,38.95
2023-06-02T10:38:18.651Z,37.09
2023-06-02T10:39:18.661Z,36.38
2023-06-02T10:40:18.657Z,36.55
2023-06-02T10:41:18.621Z,37.93
2023-06-02T10:42:18.601Z,39.22
2023-06-02T10:43:18.610Z,38.53
2023-06-02T10:44:18.593Z,38.85
2023-06-02T10:45:18.577Z,39.72
2023-06-02T10:46:18.633Z,38.69
2023-06-02T10:47:18.565Z,37.24
2023-06-02T10:48:18.547Z,37.18
2023-06-02T10:49:18.538Z,38.00
2023-06-02T10:50:18.521Z,40.58
2023-06-02T10:51:18.532Z,40.97
2023-06-02T10:52:18.500Z,38.53
2023-06-02T10:53:18.505Z,42.35
2023-06-02T10:54:18.488Z,42.53
2023-06-02T10:55:18.476Z,39.02
2023-06-02T10:56:18.460Z,41.90
2023-06-02T10:57:18.468Z,40.11
2023-06-02T10:58:18.445Z,40.96
2023-06-02T10:59:18.446Z,38.85
2023-06-02T11:00:18.424Z,38.34
2023-06-02T11:01:18.447Z,37.90
2023-06-02T11:02:18.410Z,39.28
2023-06-02T11:03:18.613Z,40.44
2023-06-02T11:04:18.386Z,39.83
2023-06-02T11:05:18.378Z,38.95
2023-06-02T11:06:18.373Z,38.65
2023-06-02T11:07:18.350Z,38.77
2023-06-02T11:08:18.364Z,40.15
2023-06-02T11:09:18.332Z,38.08
2023-06-02T11:10:18.349Z,38.89
2023-06-02T11:11:18.315Z,38.59
2023-06-02T11:12:18.316Z,41.27
2023-06-02T11:13:18.298Z,38.98
2023-06-02T11:14:18.316Z,40.88
2023-06-02T11:15:18.292Z,42.55
2023-06-02T11:16:18.359Z,40.70
2023-06-02T11:17:18.261Z,40.40
2023-06-02T11:18:18.251Z,40.89
2023-06-02T11:19:18.238Z,44.92
2023-06-02T11:20:18.283Z,39.93
2023-06-02T11:21:18.212Z,40.54
2023-06-02T11:22:18.255Z,44.53
2023-06-02T11:23:18.210Z,42.36
2023-06-02T11:24:18.189Z,43.37
2023-06-02T11:25:18.348Z,43.17
2023-06-02T11:26:18.175Z,44.06
2023-06-02T11:27:18.162Z,43.13
2023-06-02T11:28:18.164Z,42.91
2023-06-02T11:29:18.157Z,41.63
2023-06-02T11:30:18.398Z,43.28
2023-06-02T11:31:18.155Z,41.09
2023-06-02T11:32:18.148Z,42.85
2023-06-02T11:33:18.096Z,39.99
2023-06-02T11:34:18.105Z,41.07
2023-06-02T11:35:18.081Z,42.08
2023-06-02T11:36:18.083Z,42.69
2023-06-02T11:37:18.068Z,42.32
2023-06-02T11:38:18.088Z,41.94
2023-06-02T11:39:18.040Z,41.96
2023-06-02T11:40:18.041Z,41.90
2023-06-02T11:41:18.032Z,44.20
2023-06-02T11:42:18.032Z,42.62
2023-06-02T11:43:18.005Z,42.84
2023-06-02T11:44:18.026Z,45.78
2023-06-02T11:45:17.989Z,42.66
2023-06-02T11:46:17.984Z,46.60
2023-06-02T11:47:17.968Z,43.21
2023-06-02T11:48:18.009Z,41.72
2023-06-02T11:49:18.001Z,43.23
2023-06-02T11:50:17.944Z,44.02
2023-06-02T11:51:18.057Z,44.22
2023-06-02T11:52:17.922Z,41.72
2023-06-02T11:53:17.912Z,43.78
2023-06-02T11:54:17.952Z,42.97
2023-06-02T11:55:18.109Z,43.93
2023-06-02T11:56:17.889Z,41.84
2023-06-02T11:57:17.877Z,42.93
2023-06-02T11:58:17.887Z,42.51
2023-06-02T11:59:17.871Z,42.02
2023-06-02T12:00:17.845Z,43.72
2023-06-02T12:01:17.835Z,43.62
2023-06-02T12:02:17.896Z,44.63
2023-06-02T12:03:17.920Z,43.66
2023-06-02T12:04:18.022Z,43.86
2023-06-02T12:05:17.819Z,43.19
2023-06-02T12:06:17.797Z,42.38
2023-06-02T12:07:17.777Z,42.57
2023-06-02T12:08:17.773Z,41.94
2023-06-02T12:09:17.791Z,41.17
2023-06-02T12:10:24.854Z,41.15
2023-06-02T12:11:18.785Z,40.28
2023-06-02T12:12:17.736Z,42.01
2023-06-02T12:13:17.716Z,42.04
2023-06-02T12:14:17.730Z,44.59
2023-06-02T12:15:17.711Z,45.29
2023-06-02T12:16:17.721Z,40.80
2023-06-02T12:17:17.911Z,44.61
2023-06-02T12:18:17.802Z,42.30
2023-06-02T12:19:17.672Z,40.60
2023-06-02T12:20:17.677Z,40.80
2023-06-02T12:21:17.647Z,41.92
2023-06-02T12:22:17.681Z,40.54
2023-06-02T12:23:17.650Z,42.22
2023-06-02T12:24:17.632Z,41.94
2023-06-02T12:25:17.616Z,41.05
2023-06-02T12:26:17.620Z,43.15
2023-06-02T12:27:17.599Z,42.48
2023-06-02T12:28:17.599Z,41.66
2023-06-02T12:29:17.582Z,42.54
2023-06-02T12:30:17.586Z,41.63
2023-06-02T12:31:17.596Z,39.73
2023-06-02T12:32:17.562Z,40.62
2023-06-02T12:33:17.552Z,40.83
2023-06-02T12:34:17.549Z,39.55
2023-06-02T12:35:17.522Z,41.23
2023-06-02T12:36:17.594Z,39.24
2023-06-02T12:37:17.520Z,40.80
2023-06-02T12:38:17.505Z,41.15
2023-06-02T12:39:17.512Z,38.58
2023-06-02T12:40:17.508Z,37.08
2023-06-02T12:41:17.489Z,37.41
2023-06-02T12:42:17.480Z,38.00
2023-06-02T12:43:17.450Z,38.55
2023-06-02T12:44:17.452Z,37.06
2023-06-02T12:45:17.444Z,35.99
2023-06-02T12:46:17.489Z,37.28
2023-06-02T12:47:17.445Z,38.51
2023-06-02T12:48:17.430Z,36.04
2023-06-02T12:49:17.389Z,37.40
2023-06-02T12:50:17.396Z,35.60
2023-06-02T12:51:17.414Z,35.21
2023-06-02T12:52:17.371Z,33.60
2023-06-02T12:53:17.368Z,35.30